RIE weather

Rice Lake Regional Airport - Carl's Field
Rice Lake, Wisconsin, United States

Public forecast

Using degrees Fahrenheit for public forecast. Weather courtesy of forecast.io.

Current aviation weather report (METAR) for Rice Lake Regional Airport - Carl's Field

Retrieved 2020/08/04 13:35 UTC (7 minutes ago):

KRPD 041335Z AUTO 00000KT 10SM SCT055 SCT080 15/12 A3016 RMK AO2 T01500121

Closest aviation forecast (TAF) to Rice Lake Regional Airport - Carl's Field

Closest forecast is Chippewa Valley Regional Airport, 35.4 nm (65.6 km) SSE. Retrieved 2020/08/04 12:27 UTC (1 hour ago):

TAF KEAU 041124Z 0412/0512 00000KT P6SM FEW060 FM041700 33006KT P6SM SCT050 FM050100 00000KT P6SM SKC